createdAt,value
2023-05-19T00:00:12.393Z,55.76
2023-05-19T00:01:12.422Z,55.62
2023-05-19T00:02:12.564Z,55.60
2023-05-19T00:03:12.614Z,55.71
2023-05-19T00:04:12.571Z,55.56
2023-05-19T00:05:12.613Z,55.66
2023-05-19T00:06:12.688Z,55.66
2023-05-19T00:07:12.669Z,55.42
2023-05-19T00:08:12.671Z,55.50
2023-05-19T00:09:12.748Z,55.62
2023-05-19T00:10:12.707Z,55.53
2023-05-19T00:11:12.749Z,55.62
2023-05-19T00:12:12.763Z,55.77
2023-05-19T00:13:12.781Z,55.91
2023-05-19T00:14:12.821Z,55.74
2023-05-19T00:15:12.806Z,55.82
2023-05-19T00:16:12.888Z,55.85
2023-05-19T00:17:12.900Z,56.00
2023-05-19T00:18:12.923Z,56.22
2023-05-19T00:19:12.949Z,56.05
2023-05-19T00:20:12.956Z,56.17
2023-05-19T00:21:12.976Z,56.49
2023-05-19T00:22:13.073Z,56.43
2023-05-19T00:23:13.143Z,56.74
2023-05-19T00:24:13.171Z,56.57
2023-05-19T00:25:13.191Z,56.60
2023-05-19T00:26:13.240Z,56.53
2023-05-19T00:27:13.332Z,56.91
2023-05-19T00:28:13.300Z,56.71
2023-05-19T00:29:13.402Z,56.69
2023-05-19T00:30:13.359Z,56.79
2023-05-19T00:31:13.419Z,57.16
2023-05-19T00:32:13.518Z,57.10
2023-05-19T00:33:13.426Z,57.42
2023-05-19T00:34:13.420Z,57.17
2023-05-19T00:35:13.484Z,57.12
2023-05-19T00:36:13.486Z,57.11
2023-05-19T00:37:13.495Z,56.95
2023-05-19T00:38:13.493Z,57.01
2023-05-19T00:39:13.511Z,56.90
2023-05-19T00:40:13.526Z,56.94
2023-05-19T00:41:13.511Z,57.00
2023-05-19T00:42:13.556Z,57.09
2023-05-19T00:43:13.587Z,56.99
2023-05-19T00:44:13.624Z,56.75
2023-05-19T00:45:13.691Z,57.20
2023-05-19T00:46:13.692Z,57.01
2023-05-19T00:47:13.670Z,57.07
2023-05-19T00:48:13.674Z,57.22
2023-05-19T00:49:13.673Z,57.04
2023-05-19T00:50:13.737Z,57.09
2023-05-19T00:51:13.775Z,57.01
2023-05-19T00:52:13.758Z,57.02
2023-05-19T00:53:13.792Z,57.26
2023-05-19T00:54:13.787Z,58.01
2023-05-19T00:55:13.815Z,57.74
2023-05-19T00:56:13.833Z,57.99
2023-05-19T00:57:13.864Z,57.79
2023-05-19T00:58:13.843Z,57.65
2023-05-19T00:59:13.876Z,57.68
2023-05-19T01:00:13.906Z,57.63
2023-05-19T01:01:13.970Z,57.90
2023-05-19T01:02:13.956Z,57.96
2023-05-19T01:03:14.118Z,57.76
2023-05-19T01:04:14.010Z,57.75
2023-05-19T01:05:14.058Z,57.76
2023-05-19T01:06:14.058Z,57.87
2023-05-19T01:07:14.108Z,57.92
2023-05-19T01:08:14.153Z,57.84
2023-05-19T01:09:14.102Z,57.96
2023-05-19T01:10:14.162Z,57.91
2023-05-19T01:11:14.156Z,58.03
2023-05-19T01:12:14.210Z,58.01
2023-05-19T01:13:14.299Z,57.90
2023-05-19T01:14:14.291Z,58.23
2023-05-19T01:15:14.294Z,58.33
2023-05-19T01:16:14.341Z,58.84
2023-05-19T01:17:14.306Z,58.68
2023-05-19T01:18:14.367Z,59.21
2023-05-19T01:19:14.375Z,59.05
2023-05-19T01:20:14.354Z,58.83
2023-05-19T01:21:14.358Z,58.96
2023-05-19T01:22:14.367Z,58.63
2023-05-19T01:23:14.368Z,58.56
2023-05-19T01:24:14.412Z,58.45
2023-05-19T01:25:14.393Z,58.54
2023-05-19T01:26:14.436Z,58.42
2023-05-19T01:27:14.420Z,58.70
2023-05-19T01:28:14.426Z,58.68
2023-05-19T01:29:14.437Z,58.52
2023-05-19T01:30:14.448Z,58.54
2023-05-19T01:31:14.454Z,58.81
2023-05-19T01:32:14.519Z,58.75
2023-05-19T01:33:14.588Z,58.85
2023-05-19T01:34:14.526Z,58.59
2023-05-19T01:35:14.512Z,58.90
2023-05-19T01:36:14.542Z,59.05
2023-05-19T01:37:14.538Z,59.17
2023-05-19T01:38:14.584Z,59.22
2023-05-19T01:39:14.572Z,59.17
2023-05-19T01:40:14.589Z,59.73
2023-05-19T01:41:14.570Z,59.40
2023-05-19T01:42:14.621Z,59.19
2023-05-19T01:43:14.612Z,59.21
2023-05-19T01:44:14.650Z,59.18
2023-05-19T01:45:14.647Z,59.18
2023-05-19T01:46:14.673Z,59.04
2023-05-19T01:47:14.699Z,58.96
2023-05-19T01:48:14.763Z,59.03
2023-05-19T01:49:14.716Z,58.73
2023-05-19T01:50:14.716Z,59.06
2023-05-19T01:51:14.733Z,59.53
2023-05-19T01:52:14.738Z,59.59
2023-05-19T01:53:14.750Z,59.59
2023-05-19T01:54:14.781Z,59.35
2023-05-19T01:55:14.791Z,59.46
2023-05-19T01:56:14.796Z,59.16
2023-05-19T01:57:14.816Z,59.28
2023-05-19T01:58:14.843Z,59.16
2023-05-19T01:59:14.840Z,59.02
2023-05-19T02:00:14.845Z,58.99
2023-05-19T02:01:14.910Z,58.94
2023-05-19T02:02:14.920Z,58.83
2023-05-19T02:03:14.943Z,58.88
2023-05-19T02:04:15.023Z,58.78
2023-05-19T02:05:15.019Z,58.76
2023-05-19T02:06:15.060Z,58.85
2023-05-19T02:07:15.081Z,58.97
2023-05-19T02:08:15.119Z,59.14
2023-05-19T02:09:15.186Z,59.13
2023-05-19T02:10:15.232Z,59.40
2023-05-19T02:11:15.253Z,59.36
2023-05-19T02:12:15.299Z,59.49
2023-05-19T02:13:15.305Z,59.57
2023-05-19T02:14:15.334Z,59.94
2023-05-19T02:15:15.394Z,59.96
2023-05-19T02:16:15.502Z,59.83
2023-05-19T02:17:15.496Z,59.77
2023-05-19T02:18:15.556Z,60.13
2023-05-19T02:19:15.628Z,60.34
2023-05-19T02:20:15.620Z,60.94
2023-05-19T02:21:15.658Z,60.67
2023-05-19T02:22:15.683Z,60.43
2023-05-19T02:23:15.702Z,60.50
2023-05-19T02:24:15.765Z,60.83
2023-05-19T02:25:15.798Z,60.52
2023-05-19T02:26:15.816Z,60.43
2023-05-19T02:27:15.842Z,60.41
2023-05-19T02:28:16.532Z,60.29
2023-05-19T02:29:15.891Z,60.44
2023-05-19T02:30:15.935Z,60.71
2023-05-19T02:31:15.923Z,60.48
2023-05-19T02:32:15.981Z,60.96
2023-05-19T02:33:15.981Z,60.91
2023-05-19T02:34:16.031Z,61.62
2023-05-19T02:35:16.050Z,62.05
2023-05-19T02:36:16.052Z,61.46
2023-05-19T02:37:16.083Z,61.56
2023-05-19T02:38:16.067Z,61.82
2023-05-19T02:39:16.078Z,62.17
2023-05-19T02:40:16.153Z,62.17
2023-05-19T02:41:16.113Z,61.75
2023-05-19T02:42:16.163Z,61.96
2023-05-19T02:43:16.171Z,61.86
2023-05-19T02:44:16.208Z,61.77
2023-05-19T02:45:16.237Z,61.85
2023-05-19T02:46:16.306Z,62.37
2023-05-19T02:47:16.303Z,62.08
2023-05-19T02:48:16.368Z,62.12
2023-05-19T02:49:16.371Z,62.21
2023-05-19T02:50:16.410Z,62.55
2023-05-19T02:51:16.495Z,62.50
2023-05-19T02:52:16.456Z,62.84
2023-05-19T02:53:16.453Z,62.61
2023-05-19T02:54:16.471Z,62.48
2023-05-19T02:55:16.510Z,62.79
2023-05-19T02:56:16.516Z,62.43
2023-05-19T02:57:16.557Z,62.19
2023-05-19T02:58:16.608Z,62.29
2023-05-19T02:59:16.608Z,62.31
2023-05-19T03:00:16.653Z,62.00
2023-05-19T03:01:16.788Z,61.73
2023-05-19T03:02:16.714Z,61.52
2023-05-19T03:03:16.804Z,61.27
2023-05-19T03:04:16.706Z,61.06
2023-05-19T03:05:16.769Z,61.05
2023-05-19T03:06:16.751Z,60.99
2023-05-19T03:07:16.772Z,60.91
2023-05-19T03:08:16.777Z,61.06
2023-05-19T03:09:16.810Z,61.38
2023-05-19T03:10:16.865Z,61.39
2023-05-19T03:11:16.839Z,61.32
2023-05-19T03:12:16.874Z,61.40
2023-05-19T03:13:17.000Z,61.32
2023-05-19T03:14:16.918Z,61.67
2023-05-19T03:15:16.951Z,61.75
2023-05-19T03:16:16.937Z,62.07
2023-05-19T03:17:17.018Z,61.92
2023-05-19T03:18:17.015Z,61.74
2023-05-19T03:19:17.044Z,61.81
2023-05-19T03:20:16.979Z,61.63
2023-05-19T03:21:17.031Z,61.58
2023-05-19T03:22:17.057Z,61.47
2023-05-19T03:23:17.077Z,61.36
2023-05-19T03:24:17.072Z,61.32
2023-05-19T03:25:17.102Z,61.30
2023-05-19T03:26:17.212Z,61.08
2023-05-19T03:27:17.147Z,61.03
2023-05-19T03:28:17.252Z,60.96
2023-05-19T03:29:17.207Z,60.92
2023-05-19T03:30:17.198Z,60.91
2023-05-19T03:31:17.244Z,61.14
2023-05-19T03:32:17.292Z,60.93
2023-05-19T03:33:17.310Z,60.84
2023-05-19T03:34:17.989Z,60.75
2023-05-19T03:35:17.271Z,60.69
2023-05-19T03:36:17.317Z,60.68
2023-05-19T03:37:17.324Z,60.77
2023-05-19T03:38:17.372Z,60.66
2023-05-19T03:39:17.447Z,60.85
2023-05-19T03:40:17.444Z,60.91
2023-05-19T03:41:17.448Z,60.98
2023-05-19T03:42:17.506Z,60.96
2023-05-19T03:43:17.520Z,60.89
2023-05-19T03:44:17.531Z,60.91
2023-05-19T03:45:17.572Z,60.71
2023-05-19T03:46:17.694Z,60.54
2023-05-19T03:47:17.664Z,60.43
2023-05-19T03:48:20.367Z,60.37
2023-05-19T03:49:17.733Z,60.61
2023-05-19T03:50:17.720Z,60.82
2023-05-19T03:51:17.716Z,60.85
2023-05-19T03:52:17.652Z,61.18
2023-05-19T03:53:17.697Z,61.01
2023-05-19T03:54:17.677Z,60.97
2023-05-19T03:55:17.640Z,61.03
2023-05-19T03:56:17.651Z,62.45
2023-05-19T03:57:17.724Z,62.88
2023-05-19T03:58:17.615Z,63.01
2023-05-19T03:59:17.634Z,62.87
2023-05-19T04:00:17.603Z,63.21
2023-05-19T04:01:17.605Z,63.67
2023-05-19T04:02:17.606Z,63.31
2023-05-19T04:03:17.774Z,62.92
2023-05-19T04:04:17.672Z,62.57
2023-05-19T04:05:17.582Z,62.24
2023-05-19T04:06:17.604Z,62.11
2023-05-19T04:07:17.568Z,61.80
2023-05-19T04:08:17.564Z,61.58
2023-05-19T04:09:17.593Z,61.49
2023-05-19T04:10:17.573Z,61.36
2023-05-19T04:11:17.538Z,61.33
2023-05-19T04:12:17.547Z,61.50
2023-05-19T04:13:17.524Z,61.55
2023-05-19T04:14:17.513Z,63.01
2023-05-19T04:15:17.499Z,62.22
2023-05-19T04:16:17.599Z,62.48
2023-05-19T04:17:17.524Z,62.50
2023-05-19T04:18:17.516Z,62.40
2023-05-19T04:19:17.826Z,62.35
2023-05-19T04:20:17.487Z,62.62
2023-05-19T04:21:17.475Z,63.05
2023-05-19T04:22:17.511Z,62.95
2023-05-19T04:23:17.443Z,62.90
2023-05-19T04:24:17.445Z,62.51
2023-05-19T04:25:17.463Z,62.85
2023-05-19T04:26:17.421Z,62.97
2023-05-19T04:27:17.427Z,62.60
2023-05-19T04:28:17.400Z,62.67
2023-05-19T04:29:17.447Z,62.20
2023-05-19T04:30:18.583Z,62.34
2023-05-19T04:31:17.424Z,62.17
2023-05-19T04:32:17.458Z,61.92
2023-05-19T04:33:17.383Z,61.72
2023-05-19T04:34:17.383Z,61.47
2023-05-19T04:35:17.379Z,61.31
2023-05-19T04:36:17.361Z,61.40
2023-05-19T04:37:17.353Z,60.99
2023-05-19T04:38:17.378Z,60.81
2023-05-19T04:39:17.333Z,60.95
2023-05-19T04:40:17.342Z,60.61
2023-05-19T04:41:17.352Z,60.84
2023-05-19T04:42:17.309Z,60.59
2023-05-19T04:43:17.328Z,60.54
2023-05-19T04:44:17.338Z,60.29
2023-05-19T04:45:17.292Z,60.14
2023-05-19T04:46:17.329Z,60.19
2023-05-19T04:47:17.287Z,60.28
2023-05-19T04:48:17.302Z,60.24
2023-05-19T04:49:17.371Z,59.99
2023-05-19T04:50:17.373Z,59.86
2023-05-19T04:51:17.379Z,59.77
2023-05-19T04:52:17.425Z,59.96
2023-05-19T04:53:17.458Z,59.75
2023-05-19T04:54:17.501Z,60.06
2023-05-19T04:55:17.533Z,60.04
2023-05-19T04:56:17.517Z,59.78
2023-05-19T04:57:17.513Z,59.98
2023-05-19T04:58:17.569Z,59.96
2023-05-19T04:59:17.567Z,59.98
2023-05-19T05:00:17.605Z,59.95
2023-05-19T05:01:17.764Z,59.89
2023-05-19T05:02:17.708Z,59.86
2023-05-19T05:03:17.883Z,59.84
2023-05-19T05:04:17.786Z,59.70
2023-05-19T05:05:17.810Z,59.52
2023-05-19T05:06:17.804Z,60.09
2023-05-19T05:07:17.816Z,59.82
2023-05-19T05:08:17.881Z,60.07
2023-05-19T05:09:17.873Z,59.76
2023-05-19T05:10:17.897Z,59.83
2023-05-19T05:11:18.023Z,59.75
2023-05-19T05:12:18.021Z,59.75
2023-05-19T05:13:18.063Z,59.65
2023-05-19T05:14:18.068Z,59.92
2023-05-19T05:15:18.093Z,59.79
2023-05-19T05:16:18.116Z,60.25
2023-05-19T05:17:18.102Z,59.94
2023-05-19T05:18:18.099Z,59.67
2023-05-19T05:19:18.143Z,59.54
2023-05-19T05:20:18.197Z,59.47
2023-05-19T05:21:18.220Z,60.35
2023-05-19T05:22:18.238Z,60.27
2023-05-19T05:23:18.244Z,60.35
2023-05-19T05:24:18.243Z,60.45
2023-05-19T05:25:18.314Z,60.03
2023-05-19T05:26:18.360Z,59.96
2023-05-19T05:27:18.344Z,59.89
2023-05-19T05:28:18.362Z,59.74
2023-05-19T05:29:18.386Z,59.74
2023-05-19T05:30:18.394Z,59.56
2023-05-19T05:31:18.469Z,59.72
2023-05-19T05:32:18.547Z,59.45
2023-05-19T05:33:18.711Z,59.67
2023-05-19T05:34:18.559Z,59.75
2023-05-19T05:35:18.574Z,59.70
2023-05-19T05:36:18.534Z,59.61
2023-05-19T05:37:18.575Z,60.29
2023-05-19T05:38:18.649Z,60.07
2023-05-19T05:39:18.649Z,59.75
2023-05-19T05:40:18.657Z,59.66
2023-05-19T05:41:18.715Z,59.53
2023-05-19T05:42:18.770Z,59.22
2023-05-19T05:43:18.757Z,58.99
2023-05-19T05:44:18.766Z,58.71
2023-05-19T05:45:18.824Z,58.76
2023-05-19T05:46:18.892Z,58.67
2023-05-19T05:47:18.899Z,58.48
2023-05-19T05:48:18.913Z,58.49
2023-05-19T05:49:18.970Z,58.29
2023-05-19T05:50:19.023Z,58.10
2023-05-19T05:51:19.052Z,58.57
2023-05-19T05:52:19.020Z,58.11
2023-05-19T05:53:19.046Z,58.09
2023-05-19T05:54:19.104Z,57.53
2023-05-19T05:55:19.113Z,57.60
2023-05-19T05:56:19.164Z,57.16
2023-05-19T05:57:19.218Z,57.33
2023-05-19T05:58:19.226Z,57.25
2023-05-19T05:59:19.274Z,56.61
2023-05-19T06:00:19.354Z,56.71
2023-05-19T06:01:19.389Z,57.02
2023-05-19T06:02:19.440Z,56.90
2023-05-19T06:03:19.541Z,56.97
2023-05-19T06:04:19.526Z,56.51
2023-05-19T06:05:19.585Z,56.76
2023-05-19T06:06:19.548Z,56.48
2023-05-19T06:07:19.602Z,56.43
2023-05-19T06:08:19.596Z,56.69
2023-05-19T06:09:19.612Z,56.41
2023-05-19T06:10:19.616Z,56.29
2023-05-19T06:11:19.644Z,56.12
2023-05-19T06:12:19.723Z,56.01
2023-05-19T06:13:19.793Z,55.99
2023-05-19T06:14:19.848Z,55.07
2023-05-19T06:15:19.847Z,55.64
2023-05-19T06:16:19.878Z,55.32
2023-05-19T06:17:19.921Z,54.94
2023-05-19T06:18:19.982Z,54.46
2023-05-19T06:19:20.047Z,54.38
2023-05-19T06:20:20.039Z,54.44
2023-05-19T06:21:20.026Z,53.94
2023-05-19T06:22:20.066Z,54.04
2023-05-19T06:23:20.107Z,53.81
2023-05-19T06:24:20.164Z,54.25
2023-05-19T06:25:20.189Z,54.65
2023-05-19T06:26:20.214Z,54.97
2023-05-19T06:27:20.307Z,54.55
2023-05-19T06:28:20.312Z,54.22
2023-05-19T06:29:20.388Z,54.23
2023-05-19T06:30:20.407Z,54.28
2023-05-19T06:31:20.479Z,53.71
2023-05-19T06:32:20.491Z,53.59
2023-05-19T06:33:20.519Z,54.14
2023-05-19T06:34:20.559Z,53.86
2023-05-19T06:35:20.534Z,54.35
2023-05-19T06:36:20.593Z,54.14
2023-05-19T06:37:20.616Z,54.00
2023-05-19T06:38:20.595Z,53.84
2023-05-19T06:39:20.670Z,53.66
2023-05-19T06:40:20.727Z,53.96
2023-05-19T06:41:20.767Z,53.78
2023-05-19T06:42:20.856Z,53.30
2023-05-19T06:43:20.836Z,53.39
2023-05-19T06:44:21.228Z,53.42
2023-05-19T06:45:20.900Z,53.05
2023-05-19T06:46:20.996Z,52.72
2023-05-19T06:47:20.972Z,52.42
2023-05-19T06:48:20.970Z,52.26
2023-05-19T06:49:21.016Z,51.66
2023-05-19T06:50:21.038Z,51.73
2023-05-19T06:51:21.100Z,51.47
2023-05-19T06:52:21.125Z,51.15
2023-05-19T06:53:21.156Z,51.06
2023-05-19T06:54:21.154Z,50.42
2023-05-19T06:55:21.204Z,50.55
2023-05-19T06:56:21.273Z,49.83
2023-05-19T06:57:21.259Z,49.46
2023-05-19T06:58:21.298Z,49.34
2023-05-19T06:59:21.300Z,49.19
2023-05-19T07:00:23.091Z,49.36
2023-05-19T07:01:21.394Z,49.33
2023-05-19T07:02:21.381Z,49.00
2023-05-19T07:03:21.422Z,50.06
2023-05-19T07:04:21.333Z,49.92
2023-05-19T07:05:21.332Z,49.83
2023-05-19T07:06:21.333Z,51.48
2023-05-19T07:07:21.353Z,51.84
2023-05-19T07:08:21.328Z,51.43
2023-05-19T07:09:21.338Z,51.31
2023-05-19T07:10:21.275Z,51.24
2023-05-19T07:11:21.290Z,50.45
2023-05-19T07:12:21.321Z,50.85
2023-05-19T07:13:21.291Z,49.82
2023-05-19T07:14:21.262Z,49.79
2023-05-19T07:15:21.291Z,49.45
2023-05-19T07:16:21.284Z,49.18
2023-05-19T07:17:21.259Z,50.19
2023-05-19T07:18:21.269Z,49.67
2023-05-19T07:19:21.400Z,49.79
2023-05-19T07:20:21.234Z,49.21
2023-05-19T07:21:21.237Z,48.68
2023-05-19T07:22:21.216Z,48.39
2023-05-19T07:23:21.234Z,49.01
2023-05-19T07:24:21.216Z,49.16
2023-05-19T07:25:21.203Z,49.11
2023-05-19T07:26:21.184Z,48.61
2023-05-19T07:27:21.196Z,48.29
2023-05-19T07:28:21.205Z,48.56
2023-05-19T07:29:21.179Z,49.60
2023-05-19T07:30:21.186Z,49.27
2023-05-19T07:31:21.204Z,48.53
2023-05-19T07:32:21.301Z,48.54
2023-05-19T07:33:21.159Z,48.72
2023-05-19T07:34:21.152Z,48.74
2023-05-19T07:35:21.178Z,47.96
2023-05-19T07:36:21.141Z,47.50
2023-05-19T07:37:21.133Z,47.07
2023-05-19T07:38:21.137Z,47.32
2023-05-19T07:39:21.209Z,46.93
2023-05-19T07:40:21.123Z,46.67
2023-05-19T07:41:21.094Z,46.55
2023-05-19T07:42:21.119Z,48.10
2023-05-19T07:43:21.078Z,47.87
2023-05-19T07:44:21.082Z,47.71
2023-05-19T07:45:21.080Z,47.38
2023-05-19T07:46:21.129Z,46.84
2023-05-19T07:48:13.668Z,47.02
2023-05-19T07:49:13.584Z,46.13
2023-05-19T07:50:13.611Z,46.60
2023-05-19T07:51:13.585Z,46.43
2023-05-19T07:52:13.549Z,46.81
2023-05-19T07:53:13.557Z,45.81
2023-05-19T07:54:13.561Z,44.70
2023-05-19T07:55:13.549Z,44.60
2023-05-19T07:56:13.552Z,44.45
2023-05-19T07:57:13.539Z,44.79
2023-05-19T07:58:13.518Z,44.71
2023-05-19T07:59:13.534Z,44.95
2023-05-19T08:00:13.531Z,45.06
2023-05-19T08:01:13.517Z,44.48
2023-05-19T08:02:13.503Z,44.37
2023-05-19T08:03:13.800Z,43.91
2023-05-19T08:04:13.590Z,42.63
2023-05-19T08:05:13.536Z,43.53
2023-05-19T08:06:13.482Z,43.98
2023-05-19T08:07:13.439Z,43.87
2023-05-19T08:08:13.451Z,43.91
2023-05-19T08:09:13.455Z,44.88
2023-05-19T08:10:13.452Z,44.92
2023-05-19T08:11:13.440Z,45.06
2023-05-19T08:12:13.426Z,44.99
2023-05-19T08:13:13.434Z,44.87
2023-05-19T08:14:13.437Z,44.74
2023-05-19T08:15:13.381Z,44.93
2023-05-19T08:16:13.442Z,45.01
2023-05-19T08:17:13.368Z,44.89
2023-05-19T08:18:13.509Z,44.70
2023-05-19T08:19:13.499Z,44.21
2023-05-19T08:20:13.426Z,44.12
2023-05-19T08:21:13.517Z,44.21
2023-05-19T08:22:13.616Z,44.55
2023-05-19T08:23:13.590Z,44.87
2023-05-19T08:24:13.580Z,44.72
2023-05-19T08:25:13.654Z,44.31
2023-05-19T08:26:14.270Z,43.85
2023-05-19T08:27:13.705Z,43.93
2023-05-19T08:28:13.733Z,43.44
2023-05-19T08:29:13.788Z,43.25
2023-05-19T08:30:13.799Z,42.59
2023-05-19T08:31:13.868Z,42.34
2023-05-19T08:32:13.838Z,42.31
2023-05-19T08:33:13.906Z,41.37
2023-05-19T08:34:13.902Z,42.09
2023-05-19T08:35:13.910Z,41.22
2023-05-19T08:36:13.920Z,41.78
2023-05-19T08:37:13.973Z,40.67
2023-05-19T08:38:14.042Z,39.98
2023-05-19T08:39:14.066Z,40.96
2023-05-19T08:40:14.115Z,40.59
2023-05-19T08:41:14.136Z,41.17
2023-05-19T08:42:14.155Z,40.98
2023-05-19T08:43:14.217Z,41.22
2023-05-19T08:44:14.996Z,40.61
2023-05-19T08:45:14.242Z,40.41
2023-05-19T08:46:14.262Z,40.01
2023-05-19T08:47:14.305Z,40.09
2023-05-19T08:48:14.370Z,40.29
2023-05-19T08:49:14.363Z,40.44
2023-05-19T08:50:14.368Z,40.01
2023-05-19T08:51:14.416Z,39.49
2023-05-19T08:52:14.415Z,39.82
2023-05-19T08:54:15.464Z,38.98
2023-05-19T08:55:14.467Z,38.47
2023-05-19T08:56:14.450Z,38.96
2023-05-19T08:57:14.480Z,40.20
2023-05-19T08:58:14.428Z,39.93
2023-05-19T08:59:14.414Z,39.84
2023-05-19T09:00:14.434Z,40.05
2023-05-19T09:01:14.498Z,40.86
2023-05-19T09:02:14.398Z,40.82
2023-05-19T09:04:14.479Z,39.63
2023-05-19T09:05:14.414Z,39.32
2023-05-19T09:06:14.427Z,39.81
2023-05-19T09:07:14.365Z,41.18
2023-05-19T09:08:14.382Z,41.22
2023-05-19T09:09:14.334Z,41.64
2023-05-19T09:10:14.370Z,41.23
2023-05-19T09:11:14.356Z,40.20
2023-05-19T09:12:14.352Z,40.10
2023-05-19T09:13:14.359Z,39.54
2023-05-19T09:14:14.328Z,39.61
2023-05-19T09:15:14.323Z,39.07
2023-05-19T09:16:14.365Z,38.62
2023-05-19T09:17:14.300Z,39.05
2023-05-19T09:18:14.317Z,38.69
2023-05-19T09:19:14.323Z,38.32
2023-05-19T09:20:14.313Z,38.09
2023-05-19T09:21:14.307Z,38.71
2023-05-19T09:22:14.297Z,39.52
2023-05-19T09:23:14.301Z,39.34
2023-05-19T09:24:14.293Z,39.95
2023-05-19T09:25:14.234Z,40.50
2023-05-19T09:26:14.294Z,40.02
2023-05-19T09:27:14.268Z,39.73
2023-05-19T09:28:14.241Z,39.99
2023-05-19T09:29:14.290Z,39.85
2023-05-19T09:30:14.263Z,39.54
2023-05-19T09:31:14.211Z,39.29
2023-05-19T09:32:14.255Z,39.76
2023-05-19T09:33:14.309Z,39.04
2023-05-19T09:34:14.196Z,38.83
2023-05-19T09:35:14.214Z,37.95
2023-05-19T09:36:14.194Z,38.79
2023-05-19T09:37:14.184Z,38.27
2023-05-19T09:38:14.192Z,37.65
2023-05-19T09:39:14.164Z,37.05
2023-05-19T09:40:14.177Z,36.59
2023-05-19T09:41:14.195Z,36.81
2023-05-19T09:42:14.145Z,36.60
2023-05-19T09:43:14.140Z,37.28
2023-05-19T09:44:14.166Z,35.98
2023-05-19T09:45:14.141Z,36.04
2023-05-19T09:46:14.869Z,36.17
2023-05-19T09:47:14.113Z,36.39
2023-05-19T09:48:14.115Z,36.68
2023-05-19T09:49:14.150Z,36.96
2023-05-19T09:50:14.146Z,37.14
2023-05-19T09:51:14.087Z,37.08
2023-05-19T09:52:14.120Z,37.44
2023-05-19T09:53:14.112Z,37.32
2023-05-19T09:54:14.107Z,36.54
2023-05-19T09:55:14.063Z,37.10
2023-05-19T09:56:14.078Z,36.40
2023-05-19T09:57:14.078Z,35.68
2023-05-19T09:58:14.076Z,36.15
2023-05-19T09:59:14.049Z,36.20
2023-05-19T10:00:14.106Z,34.93
2023-05-19T10:01:14.156Z,34.52
2023-05-19T10:02:14.166Z,34.72
2023-05-19T10:03:14.231Z,34.23
2023-05-19T10:04:14.226Z,35.27
2023-05-19T10:05:14.386Z,35.60
2023-05-19T10:06:14.265Z,35.51
2023-05-19T10:07:14.348Z,36.32
2023-05-19T10:08:14.338Z,36.16
2023-05-19T10:09:14.380Z,35.95
2023-05-19T10:10:14.417Z,35.77
2023-05-19T10:11:14.444Z,34.68
2023-05-19T10:12:14.479Z,34.72
2023-05-19T10:13:14.496Z,34.30
2023-05-19T10:14:14.487Z,33.78
2023-05-19T10:15:14.536Z,33.45
2023-05-19T10:16:14.609Z,33.57
2023-05-19T10:17:14.572Z,33.12
2023-05-19T10:18:14.671Z,33.01
2023-05-19T10:19:14.761Z,33.83
2023-05-19T10:20:14.705Z,35.17
2023-05-19T10:21:14.741Z,35.39
2023-05-19T10:22:14.766Z,35.54
2023-05-19T10:23:14.788Z,35.12
2023-05-19T10:24:14.862Z,34.92
2023-05-19T10:25:14.867Z,34.54
2023-05-19T10:26:14.947Z,34.55
2023-05-19T10:27:14.951Z,34.36
2023-05-19T10:28:15.018Z,34.62
2023-05-19T10:29:15.029Z,33.31
2023-05-19T10:30:16.342Z,34.26
2023-05-19T10:31:15.078Z,33.63
2023-05-19T10:32:15.092Z,34.04
2023-05-19T10:33:15.123Z,33.87
2023-05-19T10:34:15.143Z,33.07
2023-05-19T10:35:15.141Z,33.75
2023-05-19T10:36:15.177Z,34.02
2023-05-19T10:37:15.200Z,34.74
2023-05-19T10:38:15.264Z,34.19
2023-05-19T10:39:15.278Z,34.69
2023-05-19T10:40:15.300Z,34.38
2023-05-19T10:41:15.305Z,34.14
2023-05-19T10:42:15.326Z,34.98
2023-05-19T10:43:15.346Z,35.33
2023-05-19T10:44:15.394Z,34.55
2023-05-19T10:45:15.396Z,34.11
2023-05-19T10:46:15.451Z,33.91
2023-05-19T10:47:15.521Z,33.71
2023-05-19T10:48:15.525Z,34.54
2023-05-19T10:49:15.538Z,34.07
2023-05-19T10:50:15.759Z,34.93
2023-05-19T10:51:15.643Z,34.38
2023-05-19T10:52:15.661Z,34.78
2023-05-19T10:53:15.702Z,34.84
2023-05-19T10:54:15.704Z,34.89
2023-05-19T10:55:15.790Z,34.98
2023-05-19T10:56:15.783Z,34.94
2023-05-19T10:57:15.846Z,35.14
2023-05-19T10:58:15.896Z,35.02
2023-05-19T10:59:15.907Z,35.80
2023-05-19T11:00:15.941Z,35.55
2023-05-19T11:01:16.040Z,35.03
2023-05-19T11:02:16.099Z,35.10
2023-05-19T11:03:16.123Z,34.81
2023-05-19T11:04:16.126Z,34.20
2023-05-19T11:05:16.103Z,34.59
2023-05-19T11:06:16.153Z,34.56
2023-05-19T11:07:16.168Z,33.75
2023-05-19T11:08:16.200Z,33.74
2023-05-19T11:09:16.213Z,33.62
2023-05-19T11:10:16.283Z,33.72
2023-05-19T11:11:16.318Z,34.21
2023-05-19T11:12:16.333Z,34.41
2023-05-19T11:13:16.359Z,34.16
2023-05-19T11:14:16.417Z,34.47
2023-05-19T11:15:16.644Z,34.47
2023-05-19T11:16:16.431Z,34.55
2023-05-19T11:17:16.479Z,34.47
2023-05-19T11:18:16.518Z,34.16
2023-05-19T11:19:16.547Z,33.30
2023-05-19T11:20:16.601Z,32.85
2023-05-19T11:21:16.693Z,32.64
2023-05-19T11:22:16.644Z,32.37
2023-05-19T11:23:16.729Z,31.53
2023-05-19T11:24:16.737Z,31.26
2023-05-19T11:25:16.739Z,31.70
2023-05-19T11:26:16.791Z,31.00
2023-05-19T11:27:16.779Z,30.72
2023-05-19T11:28:16.839Z,30.50
2023-05-19T11:29:16.858Z,30.20
2023-05-19T11:30:16.903Z,30.30
2023-05-19T11:31:16.940Z,30.61
2023-05-19T11:32:16.971Z,29.27
2023-05-19T11:33:17.001Z,28.79
2023-05-19T11:34:16.993Z,29.42
2023-05-19T11:35:17.038Z,29.41
2023-05-19T11:36:17.064Z,30.35
2023-05-19T11:37:17.079Z,30.20
2023-05-19T11:38:17.134Z,29.80
2023-05-19T11:39:17.136Z,29.96
2023-05-19T11:40:17.201Z,30.18
2023-05-19T11:41:18.906Z,30.56
2023-05-19T11:42:17.171Z,30.46
2023-05-19T11:43:17.241Z,31.56
2023-05-19T11:44:17.197Z,32.38
2023-05-19T11:45:17.157Z,32.02
2023-05-19T11:46:17.167Z,33.10
2023-05-19T11:47:17.181Z,32.60
2023-05-19T11:48:17.389Z,32.03
2023-05-19T11:49:17.150Z,32.35
2023-05-19T11:50:17.169Z,32.28
2023-05-19T11:51:17.174Z,31.72
2023-05-19T11:52:17.118Z,30.87
2023-05-19T11:53:17.108Z,31.60
2023-05-19T11:54:17.118Z,30.77
2023-05-19T11:55:17.103Z,30.66
2023-05-19T11:56:17.100Z,30.72
2023-05-19T11:57:17.205Z,30.39
2023-05-19T11:58:17.405Z,30.24
2023-05-19T11:59:17.077Z,30.28
2023-05-19T12:00:17.057Z,30.06
2023-05-19T12:01:17.087Z,30.92
2023-05-19T12:02:17.113Z,30.88
2023-05-19T12:03:17.191Z,31.55
2023-05-19T12:04:17.056Z,31.88
2023-05-19T12:05:17.134Z,32.39
2023-05-19T12:06:17.086Z,33.30
2023-05-19T12:07:17.009Z,33.13
2023-05-19T12:08:17.020Z,32.26
2023-05-19T12:09:17.039Z,32.28
2023-05-19T12:10:17.028Z,31.78
2023-05-19T12:11:18.127Z,31.03
2023-05-19T12:12:17.133Z,31.38
2023-05-19T12:13:16.999Z,31.75
2023-05-19T12:14:17.016Z,31.66
2023-05-19T12:15:16.970Z,31.83
2023-05-19T12:16:17.068Z,31.23
2023-05-19T12:17:17.001Z,31.83
2023-05-19T12:18:16.947Z,32.59
2023-05-19T12:19:16.984Z,32.87
2023-05-19T12:20:16.985Z,32.58
2023-05-19T12:21:16.957Z,31.82
2023-05-19T12:22:16.959Z,32.18
2023-05-19T12:23:16.929Z,32.44
2023-05-19T12:24:16.923Z,32.83
2023-05-19T12:25:16.937Z,33.64
2023-05-19T12:26:16.904Z,33.05
2023-05-19T12:27:16.917Z,33.58
2023-05-19T12:28:16.923Z,32.74
2023-05-19T12:29:16.890Z,33.71
2023-05-19T12:30:16.968Z,34.18
2023-05-19T12:31:17.012Z,33.82
2023-05-19T12:32:17.015Z,33.49
2023-05-19T12:33:17.036Z,33.76
2023-05-19T12:34:17.065Z,34.61
2023-05-19T12:35:17.097Z,35.33
2023-05-19T12:36:17.138Z,34.68
2023-05-19T12:37:17.168Z,34.55
2023-05-19T12:38:17.176Z,34.22
2023-05-19T12:39:18.046Z,34.36
2023-05-19T12:40:17.308Z,33.75
2023-05-19T12:41:17.301Z,33.64
2023-05-19T12:42:17.346Z,33.70
2023-05-19T12:43:17.356Z,34.24
2023-05-19T12:44:17.414Z,33.93
2023-05-19T12:45:17.454Z,33.65
2023-05-19T12:46:17.564Z,33.56
2023-05-19T12:47:17.522Z,33.47
2023-05-19T12:49:17.650Z,33.32
2023-05-19T12:50:17.679Z,32.96
2023-05-19T12:51:17.705Z,32.78
2023-05-19T12:52:17.760Z,32.71
2023-05-19T12:53:17.795Z,32.86
2023-05-19T12:54:17.855Z,32.73
2023-05-19T12:55:17.857Z,32.55
2023-05-19T12:56:17.916Z,32.50